Terminal Aerodrome Forecast
Issued by NWS

Home | Current Version | Previous Version | Text Only | Print | Product List | Glossary On
Versions: 1 2 3 4 5 6 7 8 9 10 11 12 13 14 15
882
FTUS41 KBTV 111737
TAFMPV
TAF
KMPV 111737Z 1118/1218 34004KT P6SM VCSH BKN020
     FM111930 31004KT P6SM SCT035
     FM112300 00000KT P6SM BKN130
     FM120600 00000KT P6SM VCSH OVC050
     FM120830 19004KT 2SM -SN BR OVC028
     FM121100 18004KT 3/4SM -SN BR OVC015 WS020/14035KT=

USA.gov is the U.S. government's official web portal to all federal, state and local government web resources and services.